Time;durP1;ratioP1;P1;durP2;ratioP2;P2;SDS_P1;SDS_P2;PMS_P1;PMS_P2;Temp;Humidity;BMP_temperature;BMP_pressure;BME280_temperature;BME280_humidity;BME280_pressure;Samples;Min_cycle;Max_cycle;Signal;HPM_P1;HPM_P2
2021/11/27 00:01:46;;;;;;;1.70;1.50;;;;;;;;;;5067197;28;20191;-75
2021/11/27 00:04:13;;;;;;;1.83;1.33;;;;;;;;;;5055477;28;20214;-81
2021/11/27 00:06:40;;;;;;;1.38;1.23;;;;;;;;;;5055739;28;20205;-79
2021/11/27 00:09:10;;;;;;;1.50;1.40;;;;;;;;;;5058571;28;20573;-80
2021/11/27 00:11:37;;;;;;;1.58;1.40;;;;;;;;;;5058677;28;20194;-79
2021/11/27 00:14:05;;;;;;;1.75;1.33;;;;;;;;;;5055390;28;20559;-76
2021/11/27 00:16:32;;;;;;;2.63;1.25;;;;;;;;;;5056281;28;20205;-77
2021/11/27 00:18:59;;;;;;;1.40;1.25;;;;;;;;;;5060060;28;20206;-79
2021/11/27 00:21:27;;;;;;;1.30;1.15;;;;;;;;;;5061167;28;20210;-77
2021/11/27 00:23:55;;;;;;;1.83;1.52;;;;;;;;;;5054792;28;20194;-79
2021/11/27 00:26:24;;;;;;;1.55;1.25;;;;;;;;;;5053429;28;20293;-78
2021/11/27 00:28:51;;;;;;;1.95;1.25;;;;;;;;;;5063123;28;20675;-78
2021/11/27 00:31:19;;;;;;;1.95;1.20;;;;;;;;;;5063718;28;20198;-79
2021/11/27 00:33:47;;;;;;;2.10;1.40;;;;;;;;;;5064913;28;20213;-78
2021/11/27 00:36:14;;;;;;;1.40;1.20;;;;;;;;;;5064365;28;20281;-78
2021/11/27 00:38:42;;;;;;;1.23;1.05;;;;;;;;;;5060103;28;20202;-78
2021/11/27 00:41:10;;;;;;;1.70;1.10;;;;;;;;;;5057083;28;20194;-77
2021/11/27 00:43:38;;;;;;;1.52;1.42;;;;;;;;;;5066523;28;20194;-78
2021/11/27 00:46:05;;;;;;;1.20;1.10;;;;;;;;;;5067544;28;20202;-77
2021/11/27 00:48:32;;;;;;;1.20;1.08;;;;;;;;;;5066894;28;20190;-77
2021/11/27 00:51:03;;;;;;;1.23;1.05;;;;;;;;;;5057363;28;20201;-77
2021/11/27 00:53:30;;;;;;;1.30;1.10;;;;;;;;;;5054139;28;20195;-78
2021/11/27 00:55:57;;;;;;;1.20;1.10;;;;;;;;;;5059503;28;20218;-79
2021/11/27 00:58:24;;;;;;;1.50;1.20;;;;;;;;;;5059076;28;20678;-79
2021/11/27 01:00:54;;;;;;;1.25;1.15;;;;;;;;;;5051709;28;20237;-78
2021/11/27 01:03:23;;;;;;;1.05;0.93;;;;;;;;;;5057727;28;20203;-78
2021/11/27 01:05:50;;;;;;;2.17;1.20;;;;;;;;;;5059617;28;20202;-78
2021/11/27 01:08:18;;;;;;;2.05;1.25;;;;;;;;;;5052787;28;20207;-77
2021/11/27 01:10:48;;;;;;;1.90;1.23;;;;;;;;;;5059133;28;20676;-77
2021/11/27 01:13:16;;;;;;;1.70;0.95;;;;;;;;;;5053519;28;20191;-77
2021/11/27 01:15:43;;;;;;;1.50;0.98;;;;;;;;;;5056032;28;20227;-78
2021/11/27 01:18:12;;;;;;;1.20;1.00;;;;;;;;;;5056202;28;20207;-77
2021/11/27 01:20:41;;;;;;;1.20;1.10;;;;;;;;;;5056522;28;20199;-78
2021/11/27 01:23:08;;;;;;;1.10;0.90;;;;;;;;;;5067150;28;20205;-77
2021/11/27 01:25:36;;;;;;;1.27;1.17;;;;;;;;;;5051243;28;20650;-77
2021/11/27 01:28:03;;;;;;;1.42;1.20;;;;;;;;;;5057699;28;20270;-77
2021/11/27 01:30:30;;;;;;;1.30;1.05;;;;;;;;;;5058495;28;20198;-77
2021/11/27 01:32:57;;;;;;;1.15;1.00;;;;;;;;;;5052101;28;20211;-77
2021/11/27 01:35:26;;;;;;;1.10;1.00;;;;;;;;;;5052678;28;20218;-78
2021/11/27 01:37:53;;;;;;;1.40;1.02;;;;;;;;;;5064566;28;20190;-80
2021/11/27 01:40:23;;;;;;;1.20;1.10;;;;;;;;;;5059745;28;20649;-78
2021/11/27 01:42:50;;;;;;;1.30;1.02;;;;;;;;;;5050938;28;20203;-78
2021/11/27 01:45:18;;;;;;;1.20;0.90;;;;;;;;;;5067754;28;20195;-80
2021/11/27 01:47:48;;;;;;;1.30;1.00;;;;;;;;;;5064321;28;20712;-79
2021/11/27 01:50:15;;;;;;;1.05;0.95;;;;;;;;;;5060081;28;20233;-80
2021/11/27 01:52:43;;;;;;;1.30;1.00;;;;;;;;;;5058096;28;20221;-78
2021/11/27 01:55:11;;;;;;;1.30;1.10;;;;;;;;;;5053616;28;20681;-78
2021/11/27 01:57:41;;;;;;;1.10;1.00;;;;;;;;;;5058656;28;20202;-78
2021/11/27 02:00:09;;;;;;;1.10;0.88;;;;;;;;;;5070158;28;20225;-79
2021/11/27 02:02:36;;;;;;;1.10;0.90;;;;;;;;;;5059345;28;20206;-78
2021/11/27 02:05:04;;;;;;;1.20;0.90;;;;;;;;;;5058882;28;20617;-79
2021/11/27 02:07:31;;;;;;;1.83;1.00;;;;;;;;;;5055688;28;20191;-79
2021/11/27 02:10:00;;;;;;;1.00;0.80;;;;;;;;;;5051604;28;20195;-79
2021/11/27 02:12:27;;;;;;;1.50;1.33;;;;;;;;;;5050714;28;20245;-78
2021/11/27 02:14:54;;;;;;;1.55;0.90;;;;;;;;;;5050214;28;20272;-78
2021/11/27 02:17:21;;;;;;;1.10;0.90;;;;;;;;;;5059050;28;20205;-78
2021/11/27 02:19:48;;;;;;;1.10;0.80;;;;;;;;;;5055067;28;20198;-78
2021/11/27 02:22:17;;;;;;;0.98;0.80;;;;;;;;;;5060068;28;20646;-79
2021/11/27 02:24:44;;;;;;;0.90;0.80;;;;;;;;;;5055727;28;20191;-78
2021/11/27 02:27:11;;;;;;;1.10;1.00;;;;;;;;;;5066408;28;20277;-77
2021/11/27 02:29:39;;;;;;;0.90;0.80;;;;;;;;;;5057561;28;20642;-78
2021/11/27 02:32:06;;;;;;;1.52;1.00;;;;;;;;;;5061987;28;20554;-79
2021/11/27 02:34:33;;;;;;;1.00;0.90;;;;;;;;;;5056576;28;20213;-78
2021/11/27 02:37:02;;;;;;;0.95;0.80;;;;;;;;;;5060441;28;20650;-78
2021/11/27 02:39:31;;;;;;;1.13;1.02;;;;;;;;;;5056530;28;20194;-78
2021/11/27 02:41:58;;;;;;;0.90;0.80;;;;;;;;;;5057689;28;20207;-80
2021/11/27 02:44:26;;;;;;;1.10;0.90;;;;;;;;;;5062004;28;20191;-78
2021/11/27 02:46:54;;;;;;;1.80;0.95;;;;;;;;;;5056903;28;20199;-78
2021/11/27 02:49:21;;;;;;;1.15;0.90;;;;;;;;;;5055900;28;20202;-78
2021/11/27 02:51:48;;;;;;;1.02;0.88;;;;;;;;;;5059935;28;20198;-78
2021/11/27 02:54:15;;;;;;;1.10;0.90;;;;;;;;;;5055988;28;20569;-78
2021/11/27 02:56:44;;;;;;;1.00;0.90;;;;;;;;;;5066929;28;20202;-78
2021/11/27 02:59:15;;;;;;;1.45;1.00;;;;;;;;;;5067617;28;20222;-78
2021/11/27 03:01:43;;;;;;;1.23;0.80;;;;;;;;;;5056093;28;20191;-79
2021/11/27 03:04:11;;;;;;;1.00;0.90;;;;;;;;;;5055885;28;20702;-77
2021/11/27 03:06:38;;;;;;;1.00;0.82;;;;;;;;;;5070045;28;20205;-77
2021/11/27 03:09:06;;;;;;;1.10;0.98;;;;;;;;;;5072842;28;20281;-77
2021/11/27 03:11:33;;;;;;;1.55;1.30;;;;;;;;;;5055915;28;20199;-78
2021/11/27 03:14:01;;;;;;;1.25;0.95;;;;;;;;;;5055163;28;20542;-77
2021/11/27 03:16:28;;;;;;;2.97;0.90;;;;;;;;;;5069255;28;20217;-78
2021/11/27 03:18:56;;;;;;;1.08;0.98;;;;;;;;;;5060073;28;20198;-78
2021/11/27 03:21:23;;;;;;;1.05;0.95;;;;;;;;;;5054974;28;20199;-79
2021/11/27 03:23:50;;;;;;;0.93;0.80;;;;;;;;;;5055425;28;20209;-78
2021/11/27 03:26:18;;;;;;;1.38;0.90;;;;;;;;;;5062475;28;20645;-78
2021/11/27 03:28:45;;;;;;;0.90;0.80;;;;;;;;;;5064861;28;20592;-79
2021/11/27 03:31:14;;;;;;;1.02;0.80;;;;;;;;;;5065679;28;20875;-77
2021/11/27 03:33:41;;;;;;;1.10;0.90;;;;;;;;;;5053351;28;20198;-79
2021/11/27 03:36:09;;;;;;;0.90;0.70;;;;;;;;;;5061134;28;20589;-78
2021/11/27 03:38:36;;;;;;;0.90;0.80;;;;;;;;;;5053172;28;20613;-78
2021/11/27 03:41:03;;;;;;;1.02;0.80;;;;;;;;;;5055132;28;20202;-79
2021/11/27 03:43:30;;;;;;;0.82;0.70;;;;;;;;;;5053200;28;20214;-79
2021/11/27 03:45:57;;;;;;;0.90;0.70;;;;;;;;;;5053671;28;20191;-78
2021/11/27 03:48:28;;;;;;;1.08;0.88;;;;;;;;;;5068120;28;20209;-83
2021/11/27 03:50:56;;;;;;;1.20;0.93;;;;;;;;;;5066056;28;20191;-82
2021/11/27 03:53:24;;;;;;;0.80;0.70;;;;;;;;;;5062936;28;20207;-82
2021/11/27 03:55:52;;;;;;;1.08;0.80;;;;;;;;;;5056780;28;20207;-83
2021/11/27 03:58:19;;;;;;;1.13;0.80;;;;;;;;;;5054943;28;20211;-83
2021/11/27 04:00:47;;;;;;;0.90;0.80;;;;;;;;;;5061374;28;20217;-82
2021/11/27 04:03:16;;;;;;;0.90;0.73;;;;;;;;;;5054746;28;20203;-83
2021/11/27 04:05:45;;;;;;;1.10;0.90;;;;;;;;;;5053483;28;20191;-81
2021/11/27 04:08:13;;;;;;;1.00;0.90;;;;;;;;;;5062625;28;20209;-82
2021/11/27 04:10:40;;;;;;;1.10;0.80;;;;;;;;;;5054817;28;20198;-82
2021/11/27 04:13:07;;;;;;;1.00;0.80;;;;;;;;;;5064731;28;20202;-82
2021/11/27 04:15:34;;;;;;;0.98;0.77;;;;;;;;;;5060234;28;20215;-82
2021/11/27 04:18:02;;;;;;;1.00;0.80;;;;;;;;;;5052275;28;20206;-82
2021/11/27 04:20:30;;;;;;;0.90;0.70;;;;;;;;;;5052011;28;20261;-82
2021/11/27 04:22:58;;;;;;;1.10;1.00;;;;;;;;;;5052945;28;20841;-82
2021/11/27 04:25:25;;;;;;;0.90;0.80;;;;;;;;;;5063348;28;20202;-82
2021/11/27 04:27:52;;;;;;;1.02;0.77;;;;;;;;;;5052182;28;20202;-81
2021/11/27 04:30:20;;;;;;;1.08;0.80;;;;;;;;;;5057714;28;20202;-81
2021/11/27 04:32:48;;;;;;;0.90;0.77;;;;;;;;;;5060268;28;20213;-82
2021/11/27 04:35:15;;;;;;;1.00;0.88;;;;;;;;;;5061763;28;20684;-82
2021/11/27 04:37:42;;;;;;;1.45;1.10;;;;;;;;;;5057604;28;20205;-82
2021/11/27 04:40:11;;;;;;;0.90;0.75;;;;;;;;;;5051915;28;20210;-82
2021/11/27 04:42:39;;;;;;;1.40;1.20;;;;;;;;;;5052990;28;20202;-81
2021/11/27 04:45:07;;;;;;;1.02;0.93;;;;;;;;;;5059161;28;20217;-82
2021/11/27 04:47:35;;;;;;;0.90;0.77;;;;;;;;;;5066259;28;20221;-81
2021/11/27 04:50:02;;;;;;;1.00;0.90;;;;;;;;;;5061727;28;20566;-81
2021/11/27 04:52:29;;;;;;;1.10;1.00;;;;;;;;;;5065059;28;20584;-83
2021/11/27 04:54:56;;;;;;;1.15;1.02;;;;;;;;;;5057512;28;20226;-83
2021/11/27 04:57:24;;;;;;;1.48;1.00;;;;;;;;;;5057936;28;20585;-83
2021/11/27 04:59:51;;;;;;;1.13;0.95;;;;;;;;;;5067202;28;20222;-83
2021/11/27 05:02:18;;;;;;;1.10;0.90;;;;;;;;;;5055037;28;20199;-82
2021/11/27 05:04:45;;;;;;;1.00;0.80;;;;;;;;;;5060488;28;20202;-82
2021/11/27 05:07:13;;;;;;;1.20;1.00;;;;;;;;;;5061454;28;20593;-82
2021/11/27 05:09:40;;;;;;;0.90;0.70;;;;;;;;;;5056008;28;20224;-82
2021/11/27 05:12:07;;;;;;;1.00;0.80;;;;;;;;;;5063108;28;20190;-81
2021/11/27 05:14:35;;;;;;;1.00;0.82;;;;;;;;;;5059325;28;20194;-81
2021/11/27 05:17:03;;;;;;;0.90;0.80;;;;;;;;;;5060983;28;20261;-81
2021/11/27 05:19:30;;;;;;;1.33;1.15;;;;;;;;;;5066325;28;20559;-82
2021/11/27 05:21:57;;;;;;;1.08;0.98;;;;;;;;;;5053130;28;20658;-82
2021/11/27 05:24:25;;;;;;;1.10;0.90;;;;;;;;;;5054129;28;20658;-82
2021/11/27 05:26:52;;;;;;;1.00;0.90;;;;;;;;;;5063490;28;20623;-82
2021/11/27 05:29:19;;;;;;;1.15;1.05;;;;;;;;;;5051443;28;20642;-82
2021/11/27 05:31:47;;;;;;;2.47;1.20;;;;;;;;;;5058023;28;20674;-81
2021/11/27 05:34:34;;;;;;;1.27;1.17;;;;;;;;;;5064120;28;20669;-82
2021/11/27 05:37:03;;;;;;;1.30;1.20;;;;;;;;;;5057558;28;20287;-81
2021/11/27 05:39:30;;;;;;;1.30;1.10;;;;;;;;;;5063964;28;20738;-82
2021/11/27 05:41:57;;;;;;;1.40;1.30;;;;;;;;;;5060576;28;20208;-80
2021/11/27 05:44:24;;;;;;;1.58;1.13;;;;;;;;;;5062483;28;20281;-82
2021/11/27 05:46:53;;;;;;;1.20;1.10;;;;;;;;;;5055945;28;20195;-82
2021/11/27 05:49:20;;;;;;;2.00;1.70;;;;;;;;;;5057939;28;20639;-82
2021/11/27 05:51:47;;;;;;;1.42;1.33;;;;;;;;;;5067858;28;20210;-81
2021/11/27 05:54:15;;;;;;;1.80;1.70;;;;;;;;;;5068503;28;20211;-82
2021/11/27 05:56:42;;;;;;;2.15;1.95;;;;;;;;;;5066473;28;20226;-82
2021/11/27 05:59:09;;;;;;;3.45;1.90;;;;;;;;;;5059040;28;20653;-80
2021/11/27 06:01:36;;;;;;;2.22;1.95;;;;;;;;;;5063737;28;20195;-81
2021/11/27 06:04:04;;;;;;;2.00;1.80;;;;;;;;;;5067213;28;20205;-81
2021/11/27 06:06:32;;;;;;;2.08;1.88;;;;;;;;;;5070411;28;20557;-81
2021/11/27 06:09:00;;;;;;;2.05;1.48;;;;;;;;;;5071438;28;20202;-83
2021/11/27 06:11:27;;;;;;;2.35;1.98;;;;;;;;;;5065752;28;20646;-83
2021/11/27 06:13:54;;;;;;;2.15;1.95;;;;;;;;;;5071669;28;20776;-82
2021/11/27 06:16:21;;;;;;;2.28;1.95;;;;;;;;;;5065320;28;20237;-82
2021/11/27 06:18:48;;;;;;;2.15;1.70;;;;;;;;;;5061289;28;20683;-83
2021/11/27 06:21:20;;;;;;;3.70;3.30;;;;;;;;;;5060659;28;20553;-82
2021/11/27 06:23:47;;;;;;;2.20;2.00;;;;;;;;;;5055799;28;20737;-82
2021/11/27 06:26:14;;;;;;;2.95;2.42;;;;;;;;;;5070686;28;20565;-83
2021/11/27 06:28:41;;;;;;;3.80;3.05;;;;;;;;;;5059719;28;20559;-82
2021/11/27 06:31:09;;;;;;;4.70;3.75;;;;;;;;;;5058885;28;20190;-83
2021/11/27 06:33:36;;;;;;;2.75;2.55;;;;;;;;;;5055641;28;20195;-82
2021/11/27 06:36:03;;;;;;;5.78;3.90;;;;;;;;;;5062553;28;20613;-81
2021/11/27 06:38:31;;;;;;;4.18;3.55;;;;;;;;;;5054806;28;20194;-80
2021/11/27 06:40:58;;;;;;;4.25;3.60;;;;;;;;;;5058012;28;20213;-81
2021/11/27 06:43:25;;;;;;;4.65;3.55;;;;;;;;;;5058583;28;20197;-81
2021/11/27 06:45:52;;;;;;;3.60;3.30;;;;;;;;;;5056608;28;20202;-80
2021/11/27 06:48:20;;;;;;;4.70;3.90;;;;;;;;;;5066840;28;20202;-82
2021/11/27 06:50:47;;;;;;;5.00;4.50;;;;;;;;;;5062315;28;20646;-81
2021/11/27 06:53:14;;;;;;;5.22;4.72;;;;;;;;;;5073127;28;20201;-81
2021/11/27 06:55:43;;;;;;;4.53;4.07;;;;;;;;;;5059424;28;20215;-81
2021/11/27 06:58:10;;;;;;;7.72;5.25;;;;;;;;;;5055259;28;20210;-81
2021/11/27 07:00:37;;;;;;;5.95;5.05;;;;;;;;;;5056966;28;20317;-84
2021/11/27 07:03:04;;;;;;;6.57;5.00;;;;;;;;;;5071407;28;20202;-85
2021/11/27 07:05:32;;;;;;;5.38;4.88;;;;;;;;;;5058273;28;20234;-85
2021/11/27 07:07:59;;;;;;;6.68;5.95;;;;;;;;;;5074124;28;20638;-82
2021/11/27 07:10:26;;;;;;;5.70;5.20;;;;;;;;;;5062590;28;20581;-87
2021/11/27 07:12:56;;;;;;;5.50;4.55;;;;;;;;;;5061035;28;20262;-88
2021/11/27 07:15:23;;;;;;;4.60;4.15;;;;;;;;;;5062736;28;20651;-87
2021/11/27 07:17:50;;;;;;;8.77;5.47;;;;;;;;;;5062565;28;20650;-88
2021/11/27 07:20:18;;;;;;;9.10;5.72;;;;;;;;;;5056230;28;20658;-88
2021/11/27 07:22:45;;;;;;;6.53;5.93;;;;;;;;;;5057568;28;20546;-89
2021/11/27 07:25:12;;;;;;;5.53;5.05;;;;;;;;;;5057068;28;20223;-86
2021/11/27 07:27:39;;;;;;;5.65;5.05;;;;;;;;;;5064779;28;20197;-84
2021/11/27 07:30:08;;;;;;;11.45;5.00;;;;;;;;;;5069670;28;20194;-85
2021/11/27 07:32:36;;;;;;;10.25;5.40;;;;;;;;;;5063837;28;20560;-86
2021/11/27 07:35:03;;;;;;;5.22;4.72;;;;;;;;;;5064817;28;20190;-89
2021/11/27 07:37:30;;;;;;;6.22;5.43;;;;;;;;;;5072411;28;20214;-89
2021/11/27 07:39:57;;;;;;;6.07;5.47;;;;;;;;;;5065386;28;20587;-90
2021/11/27 07:42:24;;;;;;;5.40;4.90;;;;;;;;;;5066172;28;20206;-90
2021/11/27 07:44:51;;;;;;;6.60;5.43;;;;;;;;;;5069948;28;20216;-87
2021/11/27 07:47:19;;;;;;;5.95;5.22;;;;;;;;;;5065657;28;20563;-85
2021/11/27 07:49:46;;;;;;;9.27;5.22;;;;;;;;;;5055898;28;20205;-86
2021/11/27 07:52:13;;;;;;;5.57;4.70;;;;;;;;;;5062264;28;20521;-86
2021/11/27 07:54:40;;;;;;;6.88;5.25;;;;;;;;;;5068697;28;20684;-81
2021/11/27 07:57:08;;;;;;;6.35;5.57;;;;;;;;;;5055636;28;20717;-81
2021/11/27 07:59:36;;;;;;;5.95;4.93;;;;;;;;;;5065889;28;20225;-84
2021/11/27 08:02:03;;;;;;;5.97;4.80;;;;;;;;;;5059728;28;20721;-83
2021/11/27 08:04:31;;;;;;;6.22;5.63;;;;;;;;;;5058499;28;20637;-83
2021/11/27 08:06:58;;;;;;;5.97;5.28;;;;;;;;;;5062351;28;20596;-84
2021/11/27 08:09:25;;;;;;;5.60;4.57;;;;;;;;;;5061317;28;20479;-84
2021/11/27 08:11:53;;;;;;;6.10;5.25;;;;;;;;;;5054217;28;20202;-82
2021/11/27 08:14:20;;;;;;;5.38;4.88;;;;;;;;;;5062045;28;20246;-84
2021/11/27 08:16:47;;;;;;;6.25;5.35;;;;;;;;;;5058329;28;20214;-85
2021/11/27 08:19:14;;;;;;;6.22;5.63;;;;;;;;;;5053773;28;20210;-82
2021/11/27 08:21:42;;;;;;;8.70;5.45;;;;;;;;;;5059004;28;20199;-85
2021/11/27 08:24:09;;;;;;;5.40;4.80;;;;;;;;;;5053591;28;20203;-86
2021/11/27 08:26:36;;;;;;;6.25;5.25;;;;;;;;;;5063883;28;20209;-84
2021/11/27 08:29:04;;;;;;;5.88;5.13;;;;;;;;;;5062026;28;20186;-86
2021/11/27 08:31:31;;;;;;;5.68;4.90;;;;;;;;;;5065833;28;20293;-87
2021/11/27 08:33:58;;;;;;;5.25;4.70;;;;;;;;;;5068063;28;20209;-88
2021/11/27 08:36:25;;;;;;;4.90;4.50;;;;;;;;;;5061758;28;20211;-87
2021/11/27 08:38:53;;;;;;;5.20;4.28;;;;;;;;;;5065200;28;20195;-85
2021/11/27 08:41:20;;;;;;;5.75;4.85;;;;;;;;;;5060328;28;20194;-85
2021/11/27 08:43:48;;;;;;;4.63;4.10;;;;;;;;;;5065174;28;20592;-87
2021/11/27 08:46:15;;;;;;;5.50;4.75;;;;;;;;;;5056002;28;20674;-86
2021/11/27 08:48:42;;;;;;;5.72;5.03;;;;;;;;;;5053338;28;20650;-81
2021/11/27 08:51:11;;;;;;;5.45;4.15;;;;;;;;;;5055609;28;20213;-86
2021/11/27 08:53:38;;;;;;;4.00;3.70;;;;;;;;;;5054883;28;20697;-87
2021/11/27 08:56:08;;;;;;;4.97;4.47;;;;;;;;;;5058261;28;20199;-83
2021/11/27 08:58:35;;;;;;;4.78;4.25;;;;;;;;;;5057478;28;20666;-83
2021/11/27 09:01:02;;;;;;;4.45;4.05;;;;;;;;;;5055278;28;20706;-82
2021/11/27 09:03:29;;;;;;;4.18;3.85;;;;;;;;;;5058430;28;20202;-86
2021/11/27 09:05:56;;;;;;;4.40;4.00;;;;;;;;;;5069193;28;20216;-82
2021/11/27 09:08:23;;;;;;;4.18;3.80;;;;;;;;;;5064563;28;20581;-84
2021/11/27 09:10:50;;;;;;;5.47;4.47;;;;;;;;;;5058281;28;20194;-84
2021/11/27 09:13:21;;;;;;;4.93;4.10;;;;;;;;;;5059710;28;20199;-85
2021/11/27 09:15:48;;;;;;;5.25;4.05;;;;;;;;;;5054663;28;20198;-83
2021/11/27 09:18:15;;;;;;;5.00;4.18;;;;;;;;;;5057596;28;20219;-80
2021/11/27 09:20:42;;;;;;;4.75;4.07;;;;;;;;;;5057548;28;20195;-84
2021/11/27 09:23:09;;;;;;;5.43;4.97;;;;;;;;;;5058810;28;20205;-82
2021/11/27 09:25:36;;;;;;;3.97;3.67;;;;;;;;;;5056182;28;20205;-83
2021/11/27 09:28:04;;;;;;;4.72;4.20;;;;;;;;;;5063052;28;20191;-82
2021/11/27 09:30:32;;;;;;;4.28;3.83;;;;;;;;;;5061714;28;20217;-82
2021/11/27 09:33:00;;;;;;;4.53;3.92;;;;;;;;;;5058727;28;20198;-82
2021/11/27 09:35:27;;;;;;;4.40;4.00;;;;;;;;;;5065063;28;20543;-82
2021/11/27 09:37:54;;;;;;;7.50;4.75;;;;;;;;;;5059873;28;20690;-81
2021/11/27 09:40:21;;;;;;;5.63;4.60;;;;;;;;;;5058164;28;20201;-81
2021/11/27 09:42:51;;;;;;;5.70;4.93;;;;;;;;;;5063151;28;20195;-82
2021/11/27 09:45:22;;;;;;;4.95;4.45;;;;;;;;;;5062510;28;20195;-82
2021/11/27 09:47:51;;;;;;;4.20;3.80;;;;;;;;;;5069814;28;20197;-83
2021/11/27 09:50:18;;;;;;;6.35;3.83;;;;;;;;;;5056155;28;20198;-82
2021/11/27 09:52:47;;;;;;;5.07;4.57;;;;;;;;;;5056772;28;20263;-82
2021/11/27 09:55:16;;;;;;;5.13;4.63;;;;;;;;;;5060174;28;20289;-82
2021/11/27 09:57:44;;;;;;;5.28;4.78;;;;;;;;;;5065882;28;20728;-81
2021/11/27 10:00:12;;;;;;;5.10;4.60;;;;;;;;;;5056223;28;20226;-83
2021/11/27 10:02:40;;;;;;;4.60;3.42;;;;;;;;;;5057615;28;20670;-82
2021/11/27 10:05:10;;;;;;;4.75;4.10;;;;;;;;;;5066624;28;20202;-82
2021/11/27 10:07:40;;;;;;;6.90;5.28;;;;;;;;;;5061295;28;20186;-82
2021/11/27 10:10:08;;;;;;;6.20;4.05;;;;;;;;;;5058468;28;20210;-82
2021/11/27 10:12:35;;;;;;;5.13;3.63;;;;;;;;;;5055088;28;20667;-82
2021/11/27 10:15:02;;;;;;;5.60;4.82;;;;;;;;;;5062596;28;20202;-82
2021/11/27 10:17:31;;;;;;;4.75;4.32;;;;;;;;;;5071207;28;20213;-82
2021/11/27 10:20:00;;;;;;;5.90;4.32;;;;;;;;;;5061922;28;20195;-82
2021/11/27 10:22:42;;;;;;;5.25;4.75;;;;;;;;;;5065453;28;20194;-82
2021/11/27 10:25:42;;;;;;;6.75;4.30;;;;;;;;;;5062263;28;20203;-82
2021/11/27 10:28:11;;;;;;;4.72;4.22;;;;;;;;;;4993763;28;20212;-82
2021/11/27 10:30:48;;;;;;;7.00;4.07;;;;;;;;;;5005618;28;20243;-81
2021/11/27 10:33:16;;;;;;;4.60;3.90;;;;;;;;;;5039457;28;20874;-82
2021/11/27 10:35:53;;;;;;;9.70;3.97;;;;;;;;;;5062230;28;20187;-82
2021/11/27 10:38:22;;;;;;;4.47;3.92;;;;;;;;;;5064455;28;20684;-82
2021/11/27 10:40:57;;;;;;;18.42;5.22;;;;;;;;;;5056468;28;20203;-82
2021/11/27 10:43:24;;;;;;;5.68;3.75;;;;;;;;;;5063948;28;20206;-82
2021/11/27 10:45:51;;;;;;;5.68;3.53;;;;;;;;;;5066147;28;20569;-82
2021/11/27 10:48:19;;;;;;;6.30;4.18;;;;;;;;;;5064412;28;20194;-81
2021/11/27 10:50:47;;;;;;;6.80;4.97;;;;;;;;;;5061078;28;20202;-82
2021/11/27 10:53:15;;;;;;;4.55;4.15;;;;;;;;;;5063633;28;20195;-82
2021/11/27 10:55:44;;;;;;;5.90;5.30;;;;;;;;;;5059528;28;20225;-81
2021/11/27 10:58:12;;;;;;;7.38;5.30;;;;;;;;;;5063570;28;20584;-82
2021/11/27 11:00:40;;;;;;;7.50;5.22;;;;;;;;;;5064138;28;20229;-83
2021/11/27 11:03:23;;;;;;;7.43;5.25;;;;;;;;;;5055343;28;20563;-83
2021/11/27 11:05:51;;;;;;;6.15;5.30;;;;;;;;;;5066587;28;20607;-81
2021/11/27 11:08:18;;;;;;;6.03;5.43;;;;;;;;;;5056559;28;20194;-78
2021/11/27 11:10:47;;;;;;;7.57;5.82;;;;;;;;;;5053526;28;20570;-80
2021/11/27 11:13:14;;;;;;;8.20;4.90;;;;;;;;;;5065377;28;20195;-79
2021/11/27 11:15:42;;;;;;;5.45;4.55;;;;;;;;;;5060125;28;20191;-80
2021/11/27 11:18:11;;;;;;;5.28;4.78;;;;;;;;;;5054405;28;20223;-80
2021/11/27 11:20:39;;;;;;;7.18;5.43;;;;;;;;;;5061054;28;20236;-82
2021/11/27 11:23:08;;;;;;;7.60;5.45;;;;;;;;;;5064095;28;20646;-82
2021/11/27 11:25:36;;;;;;;5.22;3.67;;;;;;;;;;5057717;28;20675;-81
2021/11/27 11:28:15;;;;;;;8.48;4.80;;;;;;;;;;5069678;28;20670;-81
2021/11/27 11:30:45;;;;;;;4.68;4.28;;;;;;;;;;5057283;28;20194;-81
2021/11/27 11:33:13;;;;;;;7.47;4.28;;;;;;;;;;5055881;28;20197;-81
2021/11/27 11:35:40;;;;;;;7.13;4.22;;;;;;;;;;5068478;28;20289;-81
2021/11/27 11:38:08;;;;;;;4.85;4.38;;;;;;;;;;5063338;28;20214;-81
2021/11/27 11:40:36;;;;;;;7.28;5.40;;;;;;;;;;5055625;28;20205;-81
2021/11/27 11:43:03;;;;;;;6.22;5.15;;;;;;;;;;5065761;28;20277;-80
2021/11/27 11:45:31;;;;;;;9.70;3.78;;;;;;;;;;5060023;28;20294;-81
2021/11/27 11:47:59;;;;;;;8.80;3.90;;;;;;;;;;5062319;28;20198;-81
2021/11/27 11:50:27;;;;;;;6.95;4.63;;;;;;;;;;5052752;28;20571;-82
2021/11/27 11:52:59;;;;;;;10.10;4.35;;;;;;;;;;5065880;28;20201;-82
2021/11/27 11:55:27;;;;;;;8.30;4.10;;;;;;;;;;5054588;28;20199;-82
2021/11/27 11:57:56;;;;;;;6.93;5.43;;;;;;;;;;5059738;28;20218;-82
2021/11/27 12:00:24;;;;;;;13.23;4.70;;;;;;;;;;5060666;28;20250;-81
2021/11/27 12:02:53;;;;;;;5.10;4.15;;;;;;;;;;5060219;28;20197;-82
2021/11/27 12:05:22;;;;;;;5.53;3.78;;;;;;;;;;5057664;28;20199;-82
2021/11/27 12:07:51;;;;;;;7.47;4.05;;;;;;;;;;5062223;28;20279;-81
2021/11/27 12:10:19;;;;;;;15.02;5.63;;;;;;;;;;5064308;28;20202;-74
2021/11/27 12:12:47;;;;;;;15.18;6.95;;;;;;;;;;5055592;28;20191;-76
2021/11/27 12:15:14;;;;;;;11.98;6.65;;;;;;;;;;5057524;28;20195;-76
2021/11/27 12:18:10;;;;;;;13.45;6.18;;;;;;;;;;5066135;28;20220;-76
2021/11/27 12:20:48;;;;;;;6.30;5.35;;;;;;;;;;5037712;28;20233;-81
2021/11/27 12:23:35;;;;;;;12.55;5.50;;;;;;;;;;5061045;28;20526;-82
2021/11/27 12:26:15;;;;;;;8.88;5.35;;;;;;;;;;5064903;28;20243;-82
2021/11/27 12:28:43;;;;;;;9.77;5.40;;;;;;;;;;5061270;28;20665;-81
2021/11/27 12:31:10;;;;;;;8.65;5.00;;;;;;;;;;5060255;28;20208;-81
2021/11/27 12:33:48;;;;;;;9.43;4.85;;;;;;;;;;5058849;28;20195;-83
2021/11/27 12:36:41;;;;;;;6.10;5.05;;;;;;;;;;5054219;28;20594;-84
2021/11/27 12:39:10;;;;;;;9.55;4.47;;;;;;;;;;5053971;28;20219;-82
2021/11/27 12:41:38;;;;;;;11.43;4.28;;;;;;;;;;5057899;28;20221;-84
2021/11/27 12:44:13;;;;;;;11.88;4.50;;;;;;;;;;5062459;28;20198;-84
2021/11/27 12:46:40;;;;;;;4.78;3.65;;;;;;;;;;5063412;28;20201;-81
2021/11/27 12:49:07;;;;;;;14.13;5.38;;;;;;;;;;5061353;28;20202;-81
2021/11/27 12:51:34;;;;;;;9.30;4.00;;;;;;;;;;5058528;28;20195;-79
2021/11/27 12:54:31;;;;;;;14.88;4.18;;;;;;;;;;5058147;28;20203;-80
2021/11/27 12:57:16;;;;;;;6.30;4.38;;;;;;;;;;5011685;28;20667;-82
2021/11/27 12:59:45;;;;;;;7.85;2.85;;;;;;;;;;5052842;28;20229;-82
2021/11/27 13:02:13;;;;;;;9.70;3.85;;;;;;;;;;5051901;28;20195;-82
2021/11/27 13:04:41;;;;;;;6.65;3.58;;;;;;;;;;5053567;28;20272;-80
2021/11/27 13:07:08;;;;;;;4.55;3.00;;;;;;;;;;5055591;28;20205;-82
2021/11/27 13:09:35;;;;;;;10.13;4.70;;;;;;;;;;5055007;28;20198;-81
2021/11/27 13:12:11;;;;;;;6.88;3.38;;;;;;;;;;5052237;28;20206;-80
2021/11/27 13:14:40;;;;;;;7.63;3.60;;;;;;;;;;5062821;28;20190;-82
2021/11/27 13:17:08;;;;;;;6.80;3.15;;;;;;;;;;5056543;28;20203;-81
2021/11/27 13:19:36;;;;;;;11.90;4.53;;;;;;;;;;5067559;28;20210;-82
2021/11/27 13:22:04;;;;;;;11.32;3.80;;;;;;;;;;5061441;28;20190;-81
2021/11/27 13:24:32;;;;;;;7.45;2.63;;;;;;;;;;5057172;28;20199;-82
2021/11/27 13:26:59;;;;;;;8.18;3.13;;;;;;;;;;5066206;28;20250;-81
2021/11/27 13:29:28;;;;;;;9.15;2.70;;;;;;;;;;5070341;28;20201;-80
2021/11/27 13:31:56;;;;;;;5.40;3.38;;;;;;;;;;5061359;28;20291;-81
2021/11/27 13:34:23;;;;;;;5.95;2.85;;;;;;;;;;5051693;28;20199;-80
2021/11/27 13:36:51;;;;;;;3.55;2.22;;;;;;;;;;5055565;28;20200;-81
2021/11/27 13:39:20;;;;;;;4.50;3.17;;;;;;;;;;5060133;28;20229;-80
2021/11/27 13:41:48;;;;;;;5.82;2.65;;;;;;;;;;5057182;28;20209;-80
2021/11/27 13:44:15;;;;;;;3.47;2.20;;;;;;;;;;5062804;28;20183;-81
2021/11/27 13:46:53;;;;;;;3.65;2.30;;;;;;;;;;5057230;28;20219;-80
2021/11/27 13:49:32;;;;;;;3.00;2.17;;;;;;;;;;5051134;28;20684;-81
2021/11/27 13:52:00;;;;;;;2.65;2.30;;;;;;;;;;5054386;28;20201;-79
2021/11/27 13:54:29;;;;;;;3.30;2.08;;;;;;;;;;5060595;28;20190;-81
2021/11/27 13:56:56;;;;;;;2.75;1.92;;;;;;;;;;5058398;28;20206;-81
2021/11/27 13:59:24;;;;;;;7.47;2.83;;;;;;;;;;5061959;28;20222;-81
2021/11/27 14:01:57;;;;;;;4.45;2.65;;;;;;;;;;5057311;28;20191;-81
2021/11/27 14:04:25;;;;;;;6.82;2.60;;;;;;;;;;5059095;28;20219;-82
2021/11/27 14:06:57;;;;;;;6.75;2.13;;;;;;;;;;5057627;28;20211;-81
2021/11/27 14:09:42;;;;;;;6.32;3.17;;;;;;;;;;5061063;28;20190;-81
2021/11/27 14:12:24;;;;;;;5.70;2.17;;;;;;;;;;5053383;28;20464;-81
2021/11/27 14:14:54;;;;;;;2.58;1.80;;;;;;;;;;5064712;28;20195;-81
2021/11/27 14:17:21;;;;;;;12.23;2.50;;;;;;;;;;5064577;28;20612;-82
2021/11/27 14:19:48;;;;;;;4.90;2.05;;;;;;;;;;5058045;28;20218;-82
2021/11/27 14:22:17;;;;;;;2.85;2.00;;;;;;;;;;5055197;28;20252;-82
2021/11/27 14:24:45;;;;;;;3.97;2.15;;;;;;;;;;5056636;28;20199;-82
2021/11/27 14:27:12;;;;;;;2.35;1.77;;;;;;;;;;5066642;28;20194;-81
2021/11/27 14:29:39;;;;;;;4.63;1.85;;;;;;;;;;5071942;28;20205;-82
2021/11/27 14:32:17;;;;;;;7.05;2.40;;;;;;;;;;5070923;28;20676;-81
2021/11/27 14:34:45;;;;;;;4.78;1.88;;;;;;;;;;5054215;28;20845;-81
2021/11/27 14:37:12;;;;;;;3.88;1.77;;;;;;;;;;5053963;28;20573;-81
2021/11/27 14:39:40;;;;;;;4.85;2.00;;;;;;;;;;5064527;28;20221;-81
2021/11/27 14:42:08;;;;;;;3.15;2.40;;;;;;;;;;5068530;28;20224;-81
2021/11/27 14:44:37;;;;;;;3.60;1.73;;;;;;;;;;5069096;28;20205;-79
2021/11/27 14:47:05;;;;;;;4.78;2.50;;;;;;;;;;5062959;28;20582;-81
2021/11/27 14:49:34;;;;;;;2.33;1.80;;;;;;;;;;5053500;28;20195;-81
2021/11/27 14:52:02;;;;;;;3.65;2.20;;;;;;;;;;5058827;28;20293;-81